地図

経路データ

SID SEASON NUMBER BASIN SUBBASIN NAME ISO_TIME NATURE LAT LON WMO_WIND WMO_PRES WMO_AGENCY TRACK_TYPE DIST2LAND LANDFALL IFLAG USA_AGENCY USA_ATCF_ID USA_LAT USA_LON USA_RECORD USA_STATUS USA_WIND USA_PRES USA_SSHS USA_R34_NE USA_R34_SE USA_R34_SW USA_R34_NW USA_R50_NE USA_R50_SE USA_R50_SW USA_R50_NW USA_R64_NE USA_R64_SE USA_R64_SW USA_R64_NW USA_POCI USA_ROCI USA_RMW USA_EYE TOKYO_LAT TOKYO_LON TOKYO_GRADE TOKYO_WIND TOKYO_PRES TOKYO_R50_DIR TOKYO_R50_LONG TOKYO_R50_SHORT TOKYO_R30_DIR TOKYO_R30_LONG TOKYO_R30_SHORT TOKYO_LAND CMA_LAT CMA_LON CMA_CAT CMA_WIND CMA_PRES HKO_LAT HKO_LON HKO_CAT HKO_WIND HKO_PRES NEWDELHI_LAT NEWDELHI_LON NEWDELHI_GRADE NEWDELHI_WIND NEWDELHI_PRES NEWDELHI_CI NEWDELHI_DP NEWDELHI_POCI REUNION_LAT REUNION_LON REUNION_TYPE REUNION_WIND REUNION_PRES REUNION_TNUM REUNION_CI REUNION_RMW REUNION_R34_NE REUNION_R34_SE REUNION_R34_SW REUNION_R34_NW REUNION_R50_NE REUNION_R50_SE REUNION_R50_SW REUNION_R50_NW REUNION_R64_NE REUNION_R64_SE REUNION_R64_SW REUNION_R64_NW BOM_LAT BOM_LON BOM_TYPE BOM_WIND BOM_PRES BOM_TNUM BOM_CI BOM_RMW BOM_R34_NE BOM_R34_SE BOM_R34_SW BOM_R34_NW BOM_R50_NE BOM_R50_SE BOM_R50_SW BOM_R50_NW BOM_R64_NE BOM_R64_SE BOM_R64_SW BOM_R64_NW BOM_ROCI BOM_POCI BOM_EYE BOM_POS_METHOD BOM_PRES_METHOD NADI_LAT NADI_LON NADI_CAT NADI_WIND NADI_PRES WELLINGTON_LAT WELLINGTON_LON WELLINGTON_WIND WELLINGTON_PRES DS824_LAT DS824_LON DS824_STAGE DS824_WIND DS824_PRES TD9636_LAT TD9636_LON TD9636_STAGE TD9636_WIND TD9636_PRES TD9635_LAT TD9635_LON TD9635_WIND TD9635_PRES TD9635_ROCI NEUMANN_LAT NEUMANN_LON NEUMANN_CLASS NEUMANN_WIND NEUMANN_PRES MLC_LAT MLC_LON MLC_CLASS MLC_WIND MLC_PRES USA_GUST BOM_GUST BOM_GUST_PER REUNION_GUST REUNION_GUST_PER USA_SEAHGT USA_SEARAD_NE USA_SEARAD_SE USA_SEARAD_SW USA_SEARAD_NW STORM_SPEED STORM_DIR
1865021S32056 1865 3 SI MM NOT_NAMED 1865-01-21 06:00:00 NR -32.1000 55.9000 reunion main 1166 1166 _____O________ -1 -32.1000 55.9000 99 9.90000 1 103
1865021S32056 1865 3 SI MM NOT_NAMED 1865-01-21 09:00:00 NR -32.1153 55.9794 main 1174 1174 _____P________ -1 -32.1153 55.9794 99 1 103
1865021S32056 1865 3 SI MM NOT_NAMED 1865-01-21 12:00:00 NR -32.1326 56.0644 main 1181 1181 _____P________ -1 -32.1326 56.0644 99 2 104
1865021S32056 1865 3 SI MM NOT_NAMED 1865-01-21 15:00:00 NR -32.1543 56.1603 main 1195 1195 _____P________ -1 -32.1543 56.1603 99 2 106
1865021S32056 1865 3 SI MM NOT_NAMED 1865-01-21 18:00:00 NR -32.1823 56.2728 main 1203 1203 _____P________ -1 -32.1823 56.2728 99 2 107
1865021S32056 1865 3 SI MM NOT_NAMED 1865-01-21 21:00:00 NR -32.2188 56.4074 main 1208 1208 _____P________ -1 -32.2188 56.4074 99 3 109
1865021S32056 1865 3 SI MM NOT_NAMED 1865-01-22 00:00:00 NR -32.2660 56.5697 main 1221 1221 _____P________ -1 -32.2660 56.5697 99 3 109
1865021S32056 1865 3 SI MM NOT_NAMED 1865-01-22 03:00:00 NR -32.3257 56.7654 main 1223 1223 _____P________ -1 -32.3257 56.7654 99 4 110
1865021S32056 1865 3 SI MM NOT_NAMED 1865-01-22 06:00:00 NR -32.4000 57.0000 reunion main 1236 1236 _____O________ -1 -32.4000 57.0000 99 9.90000 5 111
1865021S32056 1865 3 SI MM NOT_NAMED 1865-01-22 09:00:00 NR -32.4897 57.2766 main 1250 1250 _____P________ -1 -32.4897 57.2766 99 5 111
1865021S32056 1865 3 SI MM NOT_NAMED 1865-01-22 12:00:00 NR -32.5913 57.5866 main 1266 1266 _____P________ -1 -32.5913 57.5866 99 6 111
1865021S32056 1865 3 SI MM NOT_NAMED 1865-01-22 15:00:00 NR -32.7001 57.9186 main 1282 1282 _____P________ -1 -32.7001 57.9186 99 6 111
1865021S32056 1865 3 SI MM NOT_NAMED 1865-01-22 18:00:00 NR -32.8116 58.2610 main 1300 1300 _____P________ -1 -32.8116 58.2610 99 6 111
1865021S32056 1865 3 SI MM NOT_NAMED 1865-01-22 21:00:00 NR -32.9216 58.6022 main 1317 1317 _____P________ -1 -32.9216 58.6022 99 6 111
1865021S32056 1865 3 SI MM NOT_NAMED 1865-01-23 00:00:00 NR -33.0257 58.9304 main 1335 1335 _____P________ -1 -33.0257 58.9304 99 6 111
1865021S32056 1865 3 SI MM NOT_NAMED 1865-01-23 03:00:00 NR -33.1198 59.2337 main 1353 1353 _____P________ -1 -33.1198 59.2337 99 5 110
1865021S32056 1865 3 SI MM NOT_NAMED 1865-01-23 06:00:00 NR -33.2000 59.5000 reunion main 1372 1372 _____O________ -1 -33.2000 59.5000 99 9.90000 4 109
1865021S32056 1865 3 SI MM NOT_NAMED 1865-01-23 09:00:00 NR -33.2633 59.7203 main 1388 1388 _____P________ -1 -33.2633 59.7203 99 4 108
1865021S32056 1865 3 SI MM NOT_NAMED 1865-01-23 12:00:00 NR -33.3112 59.8977 main 1394 1394 _____P________ -1 -33.3112 59.8977 99 3 107
1865021S32056 1865 3 SI MM NOT_NAMED 1865-01-23 15:00:00 NR -33.3458 60.0381 main 1397 1397 _____P________ -1 -33.3458 60.0381 99 2 106
1865021S32056 1865 3 SI MM NOT_NAMED 1865-01-23 18:00:00 NR -33.3696 60.1476 main 1411 1411 _____P________ -1 -33.3696 60.1476 99 2 103
1865021S32056 1865 3 SI MM NOT_NAMED 1865-01-23 21:00:00 NR -33.3848 60.2324 main 1414 1414 _____P________ -1 -33.3848 60.2324 99 1 101
1865021S32056 1865 3 SI MM NOT_NAMED 1865-01-24 00:00:00 NR -33.3934 60.2986 main 1417 1417 _____P________ -1 -33.3934 60.2986 99 1 98
1865021S32056 1865 3 SI MM NOT_NAMED 1865-01-24 03:00:00 NR -33.3978 60.3524 main 1420 1420 _____P________ -1 -33.3978 60.3524 99 1 94
1865021S32056 1865 3 SI MM NOT_NAMED 1865-01-24 06:00:00 NR -33.4000 60.4000 reunion main 1420 _____O________ -1 -33.4000 60.4000 99 9.90000 1 93

IBTrACS Databaseについて

本データベースは、米国NOAAが公開する1842年以降の世界の熱帯低気圧のベストトラックデータアーカイブInternational Best Track Archive for Climate Stewardship (IBTrACS)を、ウェブで閲覧しやすい形式に変換したものです。

最終更新日:2021-10-19